Aérodrome :
LOGIN :

S'inscrire | Disclaimer

   EN    FR    IT 

 










Légende :    VFR   VFR Marginal   IFR   IFR Intensif   IFR Très Intensif
Visi : 
Plafond : 
>= 8 km
>= 3000ft
5 à 8 km
1000 à 3000 ft
1500m à 5 km
500 à 1000 ft
800 à 1500m
200 à 500 ft
< 800m
< 200 ft
Symboles :   Orages  Brouillard  Fortes neiges  Fortes précipitations  Vent > 20 kt
SIGMETs :   Divers  Orages  Givrage  Turbulence  Onde Orograph.  Cendres Volcan.







- Altitude de l'aérodrome : 466 ft


LHPA - Pápa

DERNIER METAR :
  • 211045Z 05008KT 330V140 CAVOK 22/09 Q1018 NOSIG RMK BLU

METARs EXPIRÉS :
  • 211015Z 06006KT 340V110 CAVOK 22/09 Q1018 NOSIG RMK BLU
  • 210945Z 08006KT 020V150 9999 FEW047 21/08 Q1019 NOSIG RMK BLU
  • 210915Z 04006KT 350V140 9999 FEW047 21/10 Q1019 NOSIG RMK BLU
  • 210845Z 04006KT 350V090 CAVOK 21/10 Q1019 NOSIG RMK BLU
  • 210815Z 05006KT 340V120 CAVOK 20/08 Q1019 NOSIG RMK BLU

TAF TAF LHPA
Valide du 21 à 06h jusqu'au 22 à 06h UTC


210515Z 2106/2206 VRB03KT CAVOK
BECMG 2106/2108 07006KT
BECMG 2109/2111 9999 SCT033
BECMG 2112/2114 09005KT 9999 SCT045
BECMG 2116/2118 CAVOK
BECMG 2201/2203 VRB03KT
Pas de NOTAMs connus pour ce terrain.



MET'MAP, la Météo Aéronautique d'un coup d'oeil ! - Copyright ORBIFLY Décembre 2007 - Disclaimer

ORBIFLY MET'MAP TEAM :

Programmation & Développement : Alexandra Zaïnal
Conception & Développement : Baudouin d'Aumeries
Co-Programmation & Développement : Marc-Olivier Méhu
Soutien technique & logistique : Manuel Goepfert

Contact : metmap@orbifly.com




SOURCES & CREDITS :

   NOAA